createdAt,value
2019-02-19T13:14:15.022Z,83.00
2019-02-19T13:16:47.606Z,83.50
2019-02-19T13:22:18.525Z,83.70
2019-02-19T13:24:52.648Z,82.80
2019-02-19T13:27:32.677Z,82.80
2019-02-19T13:30:12.366Z,83.00
2019-02-19T13:32:54.390Z,82.70
2019-02-19T13:35:32.738Z,82.40
2019-02-19T13:38:13.993Z,81.80
2019-02-19T13:41:19.452Z,80.90
2019-02-19T13:43:38.075Z,81.20
2019-02-19T13:46:23.760Z,81.00
2019-02-19T13:49:12.261Z,81.00
2019-02-19T13:51:38.551Z,80.80
2019-02-19T13:54:31.920Z,81.10
2019-02-19T13:57:03.267Z,81.50
2019-02-19T13:59:39.963Z,81.00
2019-02-19T14:02:14.096Z,80.90
2019-02-19T14:04:51.631Z,80.80
2019-02-19T14:07:27.977Z,80.90
2019-02-19T14:10:23.341Z,80.80
2019-02-19T14:12:54.467Z,80.20
2019-02-19T14:15:55.427Z,80.10
2019-02-19T14:18:51.406Z,80.80
2019-02-19T14:24:57.462Z,80.40
2019-02-19T14:28:03.873Z,80.10
2019-02-19T14:31:03.056Z,80.20
2019-02-19T14:33:55.212Z,80.20
2019-02-19T14:37:06.209Z,80.30
2019-02-19T14:39:57.806Z,79.80
2019-02-19T14:43:06.234Z,79.70
2019-02-19T14:45:58.649Z,80.50
2019-02-19T14:48:51.687Z,79.50
2019-02-19T14:54:45.537Z,80.00
2019-02-19T14:57:36.959Z,80.00
2019-02-19T15:00:30.693Z,80.20
2019-02-19T15:03:20.611Z,80.20
2019-02-19T15:06:14.855Z,80.20
2019-02-19T15:09:07.637Z,80.20
2019-02-19T15:12:12.911Z,80.60
2019-02-19T15:15:02.770Z,80.70
2019-02-19T15:17:40.989Z,80.60
2019-02-19T15:20:39.310Z,80.70
2019-02-19T15:23:35.860Z,80.50
2019-02-19T15:26:42.330Z,80.60
2019-02-19T15:29:47.754Z,80.60
2019-02-19T15:32:44.812Z,80.70
2019-02-19T15:35:37.418Z,80.40
2019-02-19T15:38:29.806Z,80.50
2019-02-19T15:41:18.578Z,80.40
2019-02-19T15:44:11.037Z,80.20
2019-02-19T15:46:51.295Z,80.40
2019-02-19T15:49:48.108Z,80.00
2019-02-19T15:52:30.819Z,80.10
2019-02-19T15:55:30.381Z,80.10
2019-02-19T15:58:18.735Z,80.00
2019-02-19T16:06:38.315Z,80.30
2019-02-19T16:24:07.489Z,81.30
2019-02-19T16:26:48.396Z,81.00
2019-02-19T16:29:37.914Z,81.90
2019-02-19T16:32:36.778Z,81.30
2019-02-19T16:35:25.258Z,81.40
2019-02-19T16:38:03.450Z,81.20
2019-02-19T16:45:40.974Z,81.20
2019-02-19T17:21:56.716Z,82.20
2019-02-19T17:24:57.530Z,82.20
2019-02-19T17:28:26.567Z,82.00
2019-02-19T17:31:22.867Z,81.80
2019-02-19T17:34:59.654Z,81.60
2019-02-19T17:37:52.052Z,81.50
2019-02-19T17:40:36.967Z,81.50
2019-02-19T17:43:23.679Z,81.40
2019-02-19T17:49:49.476Z,81.20
2019-02-19T17:52:46.803Z,81.30
2019-02-19T17:55:33.572Z,82.20
2019-02-19T17:58:12.337Z,81.50
2019-02-19T18:00:49.587Z,81.70
2019-02-19T18:03:37.914Z,81.80
2019-02-19T18:06:36.611Z,81.60
2019-02-19T18:09:26.383Z,81.70
2019-02-19T18:12:24.159Z,81.80
2019-02-19T18:15:13.613Z,81.90
2019-02-19T18:17:56.113Z,82.00
2019-02-19T18:20:27.123Z,82.00
2019-02-19T18:23:27.766Z,82.00
2019-02-19T18:26:01.883Z,82.20
2019-02-19T18:28:35.926Z,82.20
2019-02-19T18:33:12.662Z,82.40
2019-02-19T18:35:53.694Z,82.50
2019-02-19T18:38:31.835Z,82.60
2019-02-19T18:41:05.124Z,82.80
2019-02-19T18:43:51.105Z,82.70
2019-02-19T18:46:25.791Z,82.90
2019-02-19T18:49:11.895Z,83.20
2019-02-19T18:51:49.521Z,83.00
2019-02-19T18:54:19.604Z,83.10
2019-02-19T18:56:57.093Z,83.10
2019-02-19T18:59:27.619Z,83.30
2019-02-19T19:02:04.219Z,83.40
2019-02-19T19:04:35.471Z,83.30
2019-02-19T19:07:09.440Z,83.60
2019-02-19T19:09:43.506Z,83.60
2019-02-19T19:12:14.609Z,83.80
2019-02-19T19:14:45.607Z,83.80
2019-02-19T19:17:39.126Z,83.80
2019-02-19T19:20:11.795Z,83.80
2019-02-19T19:22:43.091Z,84.00
2019-02-19T19:25:14.326Z,84.20
2019-02-19T19:27:44.878Z,84.10
2019-02-19T19:30:26.571Z,84.20
2019-02-19T19:33:37.488Z,84.30
2019-02-19T19:36:21.736Z,84.30
2019-02-19T19:38:52.526Z,84.40
2019-02-19T19:42:12.036Z,84.50
2019-02-19T19:44:42.800Z,84.60
2019-02-19T19:47:13.458Z,84.60
2019-02-19T19:54:04.771Z,84.70
2019-02-19T20:12:28.093Z,85.00
2019-02-19T20:14:58.827Z,85.10
2019-02-19T20:17:29.462Z,85.10
2019-02-19T20:20:00.010Z,85.10
2019-02-19T20:22:30.617Z,85.20
2019-02-19T20:25:01.158Z,85.50
2019-02-19T20:27:32.623Z,85.40
2019-02-19T20:30:03.478Z,85.50
2019-02-19T20:32:34.122Z,85.50
2019-02-19T20:35:04.737Z,85.60
2019-02-19T20:37:35.241Z,85.70
2019-02-19T20:40:06.065Z,85.80
2019-02-19T20:42:36.624Z,85.70
2019-02-19T20:45:07.426Z,85.90
2019-02-19T20:47:38.071Z,85.90
2019-02-19T20:50:09.293Z,85.90
2019-02-19T20:52:39.825Z,86.20
2019-02-19T20:55:10.415Z,86.10
2019-02-19T20:57:40.867Z,86.00
2019-02-19T21:00:15.686Z,86.20
2019-02-19T21:02:46.171Z,86.20
2019-02-19T21:05:17.028Z,86.30
2019-02-19T21:07:47.529Z,86.10
2019-02-19T21:10:18.208Z,86.20
2019-02-19T21:12:48.658Z,86.10
2019-02-19T21:15:19.132Z,86.30
2019-02-19T21:17:49.659Z,86.10
2019-02-19T21:20:22.036Z,86.00
2019-02-19T21:22:52.394Z,86.00
2019-02-19T21:25:30.771Z,86.00
2019-02-19T21:27:55.157Z,86.10
2019-02-19T21:30:25.740Z,86.30
2019-02-19T21:32:56.242Z,86.30
2019-02-19T21:35:26.802Z,86.10
2019-02-19T21:37:57.325Z,86.10
2019-02-19T21:40:27.811Z,86.10
2019-02-19T21:42:58.338Z,86.10
2019-02-19T21:45:28.779Z,86.10
2019-02-19T21:47:59.277Z,86.40
2019-02-19T21:50:29.810Z,86.30
2019-02-19T21:53:00.280Z,86.30
2019-02-19T21:55:30.736Z,86.40
2019-02-19T21:58:01.217Z,86.50
2019-02-19T22:00:31.683Z,86.60
2019-02-19T22:03:02.210Z,86.60
2019-02-19T22:05:32.723Z,86.60
2019-02-19T22:08:03.226Z,86.70
2019-02-19T22:10:33.698Z,86.80
2019-02-19T22:13:04.218Z,86.90
2019-02-19T22:15:34.674Z,86.90
2019-02-19T22:18:05.169Z,87.20
2019-02-19T22:20:44.144Z,87.30
2019-02-19T22:23:14.591Z,87.20
2019-02-19T22:25:45.063Z,87.40
2019-02-19T22:28:15.542Z,87.40
2019-02-19T22:30:46.088Z,87.70
2019-02-19T22:33:16.541Z,87.50
2019-02-19T22:35:48.441Z,87.80
2019-02-19T22:38:18.879Z,87.90
2019-02-19T22:40:54.943Z,88.10
2019-02-19T22:43:21.618Z,88.00
2019-02-19T22:45:52.177Z,88.00
2019-02-19T22:48:22.730Z,88.20
2019-02-19T22:50:53.178Z,88.30
2019-02-19T22:53:41.329Z,88.10
2019-02-19T22:56:17.395Z,88.20
2019-02-19T22:58:47.874Z,88.40
2019-02-19T23:01:31.678Z,88.20
2019-02-19T23:04:03.063Z,88.40
2019-02-19T23:06:33.539Z,88.50
2019-02-19T23:09:05.151Z,88.40
2019-02-19T23:11:35.612Z,88.40
2019-02-19T23:14:06.163Z,88.50
2019-02-19T23:16:36.649Z,88.60
2019-02-19T23:19:07.114Z,88.50
2019-02-19T23:21:37.583Z,88.40
2019-02-19T23:24:08.063Z,88.70
2019-02-19T23:26:38.518Z,88.80
2019-02-19T23:29:09.010Z,88.90
2019-02-19T23:31:39.499Z,88.80
2019-02-19T23:34:09.986Z,88.80
2019-02-19T23:37:08.493Z,89.10
2019-02-19T23:39:43.592Z,88.80
2019-02-19T23:42:11.170Z,89.00
2019-02-19T23:44:41.616Z,89.00
2019-02-19T23:47:12.115Z,89.00
2019-02-19T23:49:42.599Z,89.20
2019-02-19T23:52:13.050Z,89.30
2019-02-19T23:54:43.530Z,89.40
2019-02-19T23:57:14.032Z,90.10
2019-02-19T23:59:44.499Z,89.80
